Terminal Aerodrome Forecast
Issued by NWS

Home | Current Version | Previous Version | Graphics & Text | Print | Product List | Glossary On
Versions: 1 2 3 4 5 6 7 8 9 10 11 12 13 14 15
000
FTUS45 KGGW 211720
TAFOLF
TAF
KOLF 211720Z 2118/2218 32017G25KT P6SM FEW190
     FM220100 28009KT P6SM SCT090
     FM220500 36011KT P6SM SCT090 BKN100
     FM221600 29020G29KT P6SM FEW080=

USA.gov is the U.S. government's official web portal to all federal, state and local government web resources and services.